createdAt,value
2017-09-29T00:01:58.011Z,75.93
2017-09-29T00:07:01.259Z,75.61
2017-09-29T00:12:04.228Z,75.33
2017-09-29T00:17:06.904Z,75.31
2017-09-29T00:22:09.542Z,75.72
2017-09-29T00:27:12.239Z,76.37
2017-09-29T00:32:15.689Z,76.62
2017-09-29T00:37:18.410Z,77.14
2017-09-29T00:42:20.503Z,77.50
2017-09-29T00:47:23.230Z,77.78
2017-09-29T00:52:25.812Z,78.10
2017-09-29T00:57:28.551Z,77.60
2017-09-29T01:02:31.266Z,77.14
2017-09-29T01:07:34.027Z,76.66
2017-09-29T01:12:36.112Z,76.88
2017-09-29T01:17:38.854Z,77.66
2017-09-29T01:22:41.670Z,77.97
2017-09-29T01:27:44.175Z,77.68
2017-09-29T01:32:46.805Z,77.07
2017-09-29T01:37:49.483Z,76.77
2017-09-29T01:42:52.299Z,76.68
2017-09-29T01:47:55.151Z,77.13
2017-09-29T01:52:57.897Z,76.67
2017-09-29T01:58:00.669Z,76.33
2017-09-29T02:03:03.442Z,76.52
2017-09-29T02:08:06.328Z,77.94
2017-09-29T02:13:09.830Z,77.91
2017-09-29T02:18:12.699Z,77.76
2017-09-29T02:23:15.906Z,77.18
2017-09-29T02:28:18.586Z,76.49
2017-09-29T02:33:21.358Z,76.38
2017-09-29T02:38:23.710Z,76.25
2017-09-29T02:43:26.218Z,76.07
2017-09-29T02:48:29.437Z,76.13
2017-09-29T02:53:31.813Z,76.42
2017-09-29T02:58:37.473Z,76.59
2017-09-29T03:03:41.307Z,76.24
2017-09-29T03:08:44.156Z,76.07
2017-09-29T03:13:46.583Z,75.92
2017-09-29T03:18:49.087Z,76.01
2017-09-29T03:23:51.424Z,77.03
2017-09-29T03:28:54.944Z,77.77
2017-09-29T03:34:02.059Z,77.87
2017-09-29T03:39:05.070Z,78.15
2017-09-29T03:44:09.460Z,78.33
2017-09-29T03:49:12.011Z,77.83
2017-09-29T03:54:18.418Z,77.50
2017-09-29T03:59:22.902Z,77.23
2017-09-29T04:04:25.243Z,76.96
2017-09-29T04:09:27.979Z,76.76
2017-09-29T04:14:30.330Z,76.37
2017-09-29T04:19:33.791Z,76.23
2017-09-29T04:24:41.601Z,76.10
2017-09-29T04:29:49.218Z,76.19
2017-09-29T04:34:55.450Z,76.07
2017-09-29T04:40:00.542Z,76.61
2017-09-29T04:45:02.756Z,76.62
2017-09-29T04:50:05.310Z,76.82
2017-09-29T04:55:07.575Z,76.73
2017-09-29T05:00:10.167Z,77.46
2017-09-29T05:05:12.909Z,78.38
2017-09-29T05:10:15.449Z,76.90
2017-09-29T05:15:17.975Z,78.03
2017-09-29T05:20:21.389Z,78.05
2017-09-29T05:25:24.039Z,78.41
2017-09-29T05:30:26.457Z,77.37
2017-09-29T05:35:29.469Z,76.43
2017-09-29T05:40:32.023Z,76.02
2017-09-29T05:45:34.935Z,75.91
2017-09-29T05:50:37.536Z,75.70
2017-09-29T05:55:40.818Z,75.64
2017-09-29T06:00:43.132Z,75.64
2017-09-29T06:05:45.765Z,75.71
2017-09-29T06:10:48.383Z,76.03
2017-09-29T06:15:50.710Z,76.31
2017-09-29T06:20:52.980Z,76.25
2017-09-29T06:25:55.684Z,76.07
2017-09-29T06:30:59.129Z,75.55
2017-09-29T06:36:01.660Z,75.52
2017-09-29T06:41:04.360Z,76.37
2017-09-29T06:46:07.148Z,77.01
2017-09-29T06:51:10.437Z,75.82
2017-09-29T06:56:13.008Z,74.84
2017-09-29T07:01:15.660Z,74.81
2017-09-29T07:06:18.811Z,75.12
2017-09-29T07:11:21.521Z,77.15
2017-09-29T07:16:23.819Z,77.13
2017-09-29T07:21:26.317Z,76.19
2017-09-29T07:26:35.505Z,74.96
2017-09-29T07:31:40.238Z,73.79
2017-09-29T07:36:43.217Z,73.02
2017-09-29T07:41:45.722Z,72.99
2017-09-29T07:46:48.499Z,72.09
2017-09-29T07:51:53.759Z,71.41
2017-09-29T07:56:56.483Z,71.34
2017-09-29T08:01:59.339Z,71.49
2017-09-29T08:07:01.939Z,71.70
2017-09-29T08:12:05.270Z,71.79
2017-09-29T08:17:07.978Z,71.47
2017-09-29T08:22:10.569Z,71.03
2017-09-29T08:27:13.186Z,69.44
2017-09-29T08:32:15.636Z,67.90
2017-09-29T08:37:18.320Z,66.49
2017-09-29T08:42:21.013Z,65.42
2017-09-29T08:47:23.426Z,64.90
2017-09-29T08:52:26.860Z,63.84
2017-09-29T08:57:29.500Z,63.51
2017-09-29T09:02:32.111Z,63.53
2017-09-29T09:07:34.635Z,64.02
2017-09-29T09:12:37.200Z,64.14
2017-09-29T09:17:39.791Z,64.38
2017-09-29T09:22:42.369Z,63.99
2017-09-29T09:27:44.935Z,63.13
2017-09-29T09:32:48.279Z,63.49
2017-09-29T09:37:51.023Z,62.76
2017-09-29T09:42:53.606Z,62.08
2017-09-29T09:47:56.105Z,61.65
2017-09-29T09:52:59.388Z,61.50
2017-09-29T09:58:02.052Z,60.76
2017-09-29T10:03:04.340Z,60.41
2017-09-29T10:08:06.922Z,59.81
2017-09-29T10:13:09.462Z,58.87
2017-09-29T10:18:11.689Z,58.42
2017-09-29T10:23:14.242Z,57.79
2017-09-29T10:28:17.612Z,57.38
2017-09-29T10:33:20.231Z,57.17
2017-09-29T10:38:23.325Z,57.10
2017-09-29T10:43:26.538Z,56.51
2017-09-29T10:48:29.458Z,56.51
2017-09-29T10:53:31.962Z,56.65
2017-09-29T10:58:34.614Z,56.51
2017-09-29T11:03:38.064Z,56.30
2017-09-29T11:08:40.592Z,56.11
2017-09-29T11:13:43.323Z,56.54
2017-09-29T11:18:45.945Z,56.22
2017-09-29T11:23:49.641Z,55.63
2017-09-29T11:28:51.994Z,55.12
2017-09-29T11:33:55.641Z,55.15
2017-09-29T11:38:58.887Z,55.42
2017-09-29T11:44:02.047Z,55.31
2017-09-29T11:49:04.934Z,54.42
2017-09-29T11:54:08.339Z,54.35
2017-09-29T11:59:11.777Z,54.70
2017-09-29T12:04:14.068Z,53.73
2017-09-29T12:09:20.247Z,53.74
2017-09-29T12:14:25.752Z,53.01
2017-09-29T12:19:28.383Z,53.78
2017-09-29T12:24:30.971Z,54.24
2017-09-29T12:29:33.448Z,54.45
2017-09-29T12:34:36.100Z,54.96
2017-09-29T12:39:40.109Z,54.03
2017-09-29T12:44:42.792Z,54.21
2017-09-29T12:49:45.125Z,54.30
2017-09-29T12:54:47.618Z,54.62
2017-09-29T12:59:50.002Z,54.64
2017-09-29T13:04:53.676Z,54.47
2017-09-29T13:09:56.382Z,54.22
2017-09-29T13:14:58.982Z,53.29
2017-09-29T13:20:01.786Z,53.80
2017-09-29T13:25:23.680Z,53.82
2017-09-29T13:30:26.285Z,54.08
2017-09-29T13:35:28.952Z,54.71
2017-09-29T13:40:31.705Z,53.83
2017-09-29T13:45:34.187Z,53.50
2017-09-29T13:50:36.747Z,52.91
2017-09-29T13:55:39.372Z,52.95
2017-09-29T14:00:42.068Z,52.32
2017-09-29T14:05:44.559Z,51.81
2017-09-29T14:10:47.014Z,51.86
2017-09-29T14:15:49.648Z,52.10
2017-09-29T14:20:51.689Z,51.84
2017-09-29T14:25:54.002Z,52.95
2017-09-29T14:30:56.548Z,53.21
2017-09-29T14:36:00.217Z,53.88
2017-09-29T14:41:09.387Z,55.04
2017-09-29T14:46:12.459Z,56.09
2017-09-29T14:51:15.121Z,56.37
2017-09-29T14:56:17.484Z,56.54
2017-09-29T15:01:20.121Z,56.37
2017-09-29T15:06:23.494Z,56.24
2017-09-29T15:11:26.954Z,56.29
2017-09-29T15:16:29.605Z,56.74
2017-09-29T15:21:31.806Z,56.46
2017-09-29T15:26:34.074Z,56.53
2017-09-29T15:31:36.440Z,56.56
2017-09-29T15:36:39.658Z,57.10
2017-09-29T15:41:44.131Z,57.33
2017-09-29T15:46:46.255Z,58.15
2017-09-29T15:51:48.924Z,58.60
2017-09-29T15:56:51.092Z,59.51
2017-09-29T16:01:54.472Z,59.64
2017-09-29T16:06:57.327Z,60.11
2017-09-29T16:12:00.637Z,60.54
2017-09-29T16:17:03.284Z,60.25
2017-09-29T16:22:07.123Z,60.32
2017-09-29T16:27:09.469Z,60.50
2017-09-29T16:32:12.110Z,61.55
2017-09-29T16:37:14.365Z,62.38
2017-09-29T16:42:17.004Z,63.00
2017-09-29T16:47:19.482Z,63.00
2017-09-29T16:52:22.133Z,63.63
2017-09-29T16:57:25.596Z,64.27
2017-09-29T17:02:31.039Z,64.79
2017-09-29T17:07:35.235Z,64.99
2017-09-29T17:12:39.897Z,65.25
2017-09-29T17:17:43.467Z,65.39
2017-09-29T17:22:46.009Z,65.56
2017-09-29T17:27:50.061Z,66.02
2017-09-29T17:32:52.482Z,65.59
2017-09-29T17:37:55.125Z,65.36
2017-09-29T17:42:57.858Z,65.57
2017-09-29T17:48:00.461Z,65.80
2017-09-29T17:53:03.042Z,65.84
2017-09-29T17:58:05.708Z,65.89
2017-09-29T18:03:08.338Z,66.10
2017-09-29T18:08:11.499Z,66.34
2017-09-29T18:13:13.908Z,66.61
2017-09-29T18:18:16.001Z,66.85
2017-09-29T18:23:19.297Z,67.11
2017-09-29T18:28:21.978Z,67.16
2017-09-29T18:33:24.459Z,67.29
2017-09-29T18:38:27.380Z,67.48
2017-09-29T18:43:35.464Z,67.20
2017-09-29T18:48:38.773Z,66.97
2017-09-29T18:53:41.422Z,66.86
2017-09-29T18:58:47.991Z,66.79
2017-09-29T19:03:53.856Z,66.85
2017-09-29T19:08:57.894Z,67.00
2017-09-29T19:14:03.056Z,67.19
2017-09-29T19:19:07.686Z,67.30
2017-09-29T19:24:13.080Z,67.87
2017-09-29T19:29:17.126Z,68.66
2017-09-29T19:34:22.747Z,68.94
2017-09-29T19:39:28.509Z,69.08
2017-09-29T19:44:34.484Z,69.08
2017-09-29T19:49:38.788Z,69.52
2017-09-29T19:54:41.588Z,69.91
2017-09-29T19:59:44.987Z,69.91
2017-09-29T20:04:48.874Z,69.67
2017-09-29T20:09:56.786Z,69.16
2017-09-29T20:15:02.757Z,68.85
2017-09-29T20:20:06.222Z,68.84
2017-09-29T20:25:11.104Z,69.31
2017-09-29T20:30:18.568Z,69.29
2017-09-29T20:35:26.804Z,69.16
2017-09-29T20:40:33.108Z,69.22
2017-09-29T20:45:37.733Z,69.19
2017-09-29T20:50:41.830Z,69.23
2017-09-29T20:55:46.184Z,69.09
2017-09-29T21:00:50.703Z,69.22
2017-09-29T21:05:54.508Z,69.04
2017-09-29T21:11:01.472Z,69.21
2017-09-29T21:16:09.331Z,69.32
2017-09-29T21:21:15.262Z,69.28
2017-09-29T21:26:24.409Z,69.15
2017-09-29T21:31:30.871Z,68.86
2017-09-29T21:36:36.889Z,68.73
2017-09-29T21:41:44.337Z,68.60
2017-09-29T21:46:51.697Z,68.57
2017-09-29T21:51:55.305Z,68.60
2017-09-29T21:57:01.357Z,68.41
2017-09-29T22:02:07.905Z,68.25
2017-09-29T22:07:12.411Z,68.20
2017-09-29T22:12:16.449Z,68.02
2017-09-29T22:17:23.480Z,67.99
2017-09-29T22:22:27.760Z,67.96
2017-09-29T22:27:34.437Z,67.94
2017-09-29T22:32:43.209Z,67.88
2017-09-29T22:37:47.363Z,68.03
2017-09-29T22:42:56.606Z,68.22
2017-09-29T22:48:06.392Z,68.63
2017-09-29T22:53:09.566Z,68.88
2017-09-29T22:58:17.592Z,69.02
2017-09-29T23:03:26.651Z,69.24
2017-09-29T23:08:30.344Z,69.17
2017-09-29T23:13:33.523Z,69.04
2017-09-29T23:18:40.804Z,69.01
2017-09-29T23:23:44.089Z,68.92
2017-09-29T23:28:50.813Z,68.82
2017-09-29T23:33:57.160Z,68.76
2017-09-29T23:39:05.326Z,68.60
2017-09-29T23:44:08.492Z,68.56
2017-09-29T23:49:15.045Z,68.55
2017-09-29T23:54:23.803Z,68.43
2017-09-29T23:59:28.708Z,68.48
